Time,TemperatureF,DewpointF,PressureIn,WindDirection,WindDirectionDegrees,WindSpeedMPH,WindSpeedGustMPH,Humidity,HourlyPrecipIn,Conditions,Clouds,dailyrainin,SoftwareType,DateUTC
2013-05-06 00:01:00,48.8,45.4,30.06,NW,315,0.7,2.0,88,0.00,,,0.00,WUHU216HW,2013-05-06 05:01:00,
2013-05-06 00:06:00,48.8,45.4,30.06,NW,315,1.1,1.6,88,0.00,,,0.00,WUHU216HW,2013-05-06 05:06:00,
2013-05-06 00:11:00,49.0,45.5,30.07,NNW,338,1.1,2.5,88,0.00,,,0.00,WUHU216HW,2013-05-06 05:11:00,
2013-05-06 00:16:00,49.1,45.7,30.06,NNW,338,1.1,2.5,88,0.00,,,0.00,WUHU216HW,2013-05-06 05:16:00,
2013-05-06 00:21:00,49.3,45.9,30.07,NNW,338,2.2,2.5,88,0.00,,,0.00,WUHU216HW,2013-05-06 05:21:00,
2013-05-06 00:26:00,49.7,46.3,30.07,NNW,338,1.6,3.4,88,0.00,,,0.00,WUHU216HW,2013-05-06 05:26:00,
2013-05-06 00:31:00,49.9,46.1,30.07,North,0,3.1,3.8,87,0.00,,,0.00,WUHU216HW,2013-05-06 05:31:00,
2013-05-06 00:36:00,50.0,46.3,30.07,NNW,338,2.2,3.8,87,0.00,,,0.00,WUHU216HW,2013-05-06 05:36:00,
2013-05-06 00:41:00,50.0,46.3,30.07,North,0,1.3,3.8,87,0.00,,,0.00,WUHU216HW,2013-05-06 05:41:00,
2013-05-06 00:46:00,50.0,46.3,30.07,NNW,338,2.9,4.0,87,0.00,,,0.00,WUHU216HW,2013-05-06 05:46:00,
2013-05-06 00:51:00,50.0,46.3,30.07,North,0,4.0,4.5,87,0.00,,,0.00,WUHU216HW,2013-05-06 05:51:00,
2013-05-06 00:56:00,50.0,46.3,30.07,North,0,3.4,4.5,87,0.00,,,0.00,WUHU216HW,2013-05-06 05:56:00,
2013-05-06 01:01:00,50.0,46.3,30.06,North,0,2.7,4.3,87,0.00,,,0.00,WUHU216HW,2013-05-06 06:01:00,
2013-05-06 01:06:00,49.9,46.1,30.06,NNW,338,2.5,4.3,87,0.00,,,0.00,WUHU216HW,2013-05-06 06:06:00,
2013-05-06 01:11:00,49.9,46.1,30.05,NNW,338,4.0,4.3,87,0.00,,,0.00,WUHU216HW,2013-05-06 06:11:00,
2013-05-06 01:16:00,49.7,45.9,30.05,NNW,338,2.5,4.0,87,0.00,,,0.00,WUHU216HW,2013-05-06 06:16:00,
2013-05-06 01:21:00,49.7,45.9,30.05,NNW,338,1.6,4.0,87,0.00,,,0.00,WUHU216HW,2013-05-06 06:21:00,
2013-05-06 01:26:00,49.7,45.9,30.05,NNW,338,1.6,4.0,87,0.00,,,0.00,WUHU216HW,2013-05-06 06:26:00,
2013-05-06 01:31:00,49.7,45.9,30.04,NNW,338,3.4,4.0,87,0.00,,,0.00,WUHU216HW,2013-05-06 06:31:00,
2013-05-06 01:36:00,49.7,45.9,30.04,NNW,338,1.1,3.4,87,0.00,,,0.00,WUHU216HW,2013-05-06 06:36:00,
2013-05-06 01:41:00,49.7,45.9,30.04,WNW,293,3.4,3.4,87,0.00,,,0.00,WUHU216HW,2013-05-06 06:41:00,
2013-05-06 01:46:00,49.5,45.7,30.04,NNW,338,3.4,4.0,87,0.00,,,0.00,WUHU216HW,2013-05-06 06:46:00,
2013-05-06 01:51:00,49.5,45.7,30.04,NNW,338,2.7,4.0,87,0.00,,,0.00,WUHU216HW,2013-05-06 06:51:00,
2013-05-06 01:56:00,49.5,46.1,30.04,NNW,338,1.3,3.6,88,0.00,,,0.00,WUHU216HW,2013-05-06 06:56:00,
2013-05-06 02:01:00,49.5,45.7,30.04,North,0,2.9,3.1,87,0.00,,,0.00,WUHU216HW,2013-05-06 07:01:00,
2013-05-06 02:06:00,49.5,45.7,30.04,North,0,2.5,3.1,87,0.00,,,0.00,WUHU216HW,2013-05-06 07:06:00,
2013-05-06 02:11:00,49.5,45.7,30.04,North,0,0.2,4.3,87,0.00,,,0.00,WUHU216HW,2013-05-06 07:11:00,
2013-05-06 02:16:00,49.5,45.7,30.04,North,0,2.2,4.3,87,0.00,,,0.00,WUHU216HW,2013-05-06 07:16:00,
2013-05-06 02:21:00,49.5,45.7,30.04,NNW,338,0.4,2.2,87,0.00,,,0.00,WUHU216HW,2013-05-06 07:21:00,
2013-05-06 02:26:00,49.5,46.1,30.04,NNW,338,0.9,2.2,88,0.00,,,0.00,WUHU216HW,2013-05-06 07:26:00,
2013-05-06 02:31:00,49.3,45.9,30.04,NNW,338,0.4,2.2,88,0.00,,,0.00,WUHU216HW,2013-05-06 07:31:00,
2013-05-06 02:36:00,49.3,45.9,30.04,North,0,1.6,1.8,88,0.00,,,0.00,WUHU216HW,2013-05-06 07:36:00,
2013-05-06 02:41:00,49.5,46.1,30.04,North,0,0.7,2.0,88,0.00,,,0.00,WUHU216HW,2013-05-06 07:41:00,
2013-05-06 02:46:00,49.3,45.9,30.04,NNE,23,2.5,3.8,88,0.00,,,0.00,WUHU216HW,2013-05-06 07:46:00,
2013-05-06 02:51:00,49.3,45.9,30.04,North,0,0.2,5.8,88,0.00,,,0.00,WUHU216HW,2013-05-06 07:51:00,
2013-05-06 02:56:00,49.3,45.9,30.04,North,0,3.1,5.8,88,0.00,,,0.00,WUHU216HW,2013-05-06 07:56:00,
2013-05-06 03:00:00,49.3,45.9,30.04,North,0,1.1,4.7,88,0.00,,,0.00,WUHU216HW,2013-05-06 08:00:00,
2013-05-06 03:05:00,49.3,45.9,30.04,North,0,2.2,4.7,88,0.00,,,0.00,WUHU216HW,2013-05-06 08:05:00,
2013-05-06 03:10:00,49.3,45.9,30.04,NNE,23,4.7,4.7,88,0.00,,,0.00,WUHU216HW,2013-05-06 08:10:00,
2013-05-06 03:15:00,49.3,45.9,30.04,North,0,1.8,4.7,88,0.00,,,0.00,WUHU216HW,2013-05-06 08:15:00,
2013-05-06 03:20:00,49.1,45.7,30.04,NNE,23,0.7,4.5,88,0.00,,,0.00,WUHU216HW,2013-05-06 08:20:00,
2013-05-06 03:25:00,49.1,46.1,30.04,North,0,5.1,5.1,89,0.00,,,0.00,WUHU216HW,2013-05-06 08:25:00,
2013-05-06 03:30:00,49.0,45.9,30.04,North,0,0.9,5.1,89,0.00,,,0.00,WUHU216HW,2013-05-06 08:30:00,
2013-05-06 03:35:00,49.0,45.9,30.04,North,0,0.4,5.1,89,0.00,,,0.00,WUHU216HW,2013-05-06 08:35:00,
2013-05-06 03:40:00,48.8,45.7,30.04,NNW,338,1.8,2.5,89,0.00,,,0.00,WUHU216HW,2013-05-06 08:40:00,
2013-05-06 03:45:00,48.8,45.7,30.04,NNW,338,2.5,2.5,89,0.00,,,0.00,WUHU216HW,2013-05-06 08:45:00,
2013-05-06 03:50:00,48.8,45.7,30.04,NNW,338,1.3,3.1,89,0.00,,,0.00,WUHU216HW,2013-05-06 08:50:00,
2013-05-06 03:55:00,48.8,46.0,30.03,North,0,0.7,3.1,90,0.00,,,0.00,WUHU216HW,2013-05-06 08:55:00,
2013-05-06 04:00:00,48.8,46.0,30.03,North,0,1.8,2.2,90,0.00,,,0.00,WUHU216HW,2013-05-06 09:00:00,
2013-05-06 04:05:00,48.8,46.0,30.03,North,0,0.2,2.2,90,0.00,,,0.00,WUHU216HW,2013-05-06 09:05:00,
2013-05-06 04:10:00,48.8,46.0,30.04,North,0,1.1,1.8,90,0.00,,,0.00,WUHU216HW,2013-05-06 09:10:00,
2013-05-06 04:15:00,48.6,45.9,30.04,NE,45,1.1,2.2,90,0.00,,,0.00,WUHU216HW,2013-05-06 09:15:00,
2013-05-06 04:20:00,48.6,45.9,30.04,North,0,1.6,2.5,90,0.00,,,0.00,WUHU216HW,2013-05-06 09:20:00,
2013-05-06 04:25:00,48.6,45.9,30.04,North,0,0.7,3.1,90,0.00,,,0.00,WUHU216HW,2013-05-06 09:25:00,
2013-05-06 04:30:00,48.6,45.9,30.04,North,0,0.4,3.1,90,0.00,,,0.00,WUHU216HW,2013-05-06 09:30:00,
2013-05-06 04:35:00,48.6,46.2,30.03,NNW,338,0.4,2.5,91,0.00,,,0.00,WUHU216HW,2013-05-06 09:35:00,
2013-05-06 04:40:00,48.4,46.0,30.04,NNE,23,1.8,2.5,91,0.00,,,0.00,WUHU216HW,2013-05-06 09:40:00,
2013-05-06 04:45:00,48.4,46.0,30.04,North,0,1.3,2.5,91,0.00,,,0.00,WUHU216HW,2013-05-06 09:45:00,
2013-05-06 04:50:00,48.4,46.0,30.03,North,0,1.6,1.8,91,0.00,,,0.00,WUHU216HW,2013-05-06 09:50:00,
2013-05-06 04:55:00,48.4,46.0,30.03,NNW,338,1.1,2.5,91,0.00,,,0.00,WUHU216HW,2013-05-06 09:55:00,
2013-05-06 05:00:00,48.4,46.0,30.03,NNW,338,1.8,2.5,91,0.00,,,0.00,WUHU216HW,2013-05-06 10:00:00,
2013-05-06 05:05:00,48.4,46.0,30.04,NNW,338,1.1,1.8,91,0.00,,,0.00,WUHU216HW,2013-05-06 10:05:00,
2013-05-06 05:10:00,48.4,46.0,30.04,NNW,338,1.1,1.8,91,0.00,,,0.00,WUHU216HW,2013-05-06 10:10:00,
2013-05-06 05:15:00,48.2,45.8,30.04,North,0,0.7,2.7,91,0.00,,,0.00,WUHU216HW,2013-05-06 10:15:00,
2013-05-06 05:20:00,48.2,45.8,30.04,North,0,0.9,2.7,91,0.00,,,0.00,WUHU216HW,2013-05-06 10:20:00,
2013-05-06 05:25:00,48.2,45.8,30.04,North,0,0.0,1.8,91,0.00,,,0.00,WUHU216HW,2013-05-06 10:25:00,
2013-05-06 05:30:00,48.2,45.8,30.04,North,0,0.4,2.5,91,0.00,,,0.00,WUHU216HW,2013-05-06 10:30:00,
2013-05-06 05:35:00,48.2,45.8,30.04,North,0,2.2,3.1,91,0.00,,,0.00,WUHU216HW,2013-05-06 10:35:00,
2013-05-06 05:40:00,48.1,45.6,30.04,NNE,23,2.7,3.1,91,0.00,,,0.00,WUHU216HW,2013-05-06 10:40:00,
2013-05-06 05:45:00,48.2,45.8,30.04,North,0,1.8,2.9,91,0.00,,,0.00,WUHU216HW,2013-05-06 10:45:00,
2013-05-06 05:50:00,48.2,45.8,30.05,North,0,1.1,2.7,91,0.00,,,0.00,WUHU216HW,2013-05-06 10:50:00,
2013-05-06 05:55:00,48.2,45.8,30.05,North,0,0.7,2.2,91,0.00,,,0.00,WUHU216HW,2013-05-06 10:55:00,
2013-05-06 06:00:00,48.1,45.9,30.05,NE,45,2.0,3.4,92,0.00,,,0.00,WUHU216HW,2013-05-06 11:00:00,
2013-05-06 06:05:00,48.1,45.9,30.05,North,0,1.6,3.4,92,0.00,,,0.00,WUHU216HW,2013-05-06 11:05:00,
2013-05-06 06:10:00,47.9,45.7,30.05,North,0,0.7,3.4,92,0.00,,,0.00,WUHU216HW,2013-05-06 11:10:00,
2013-05-06 06:15:00,47.9,45.7,30.05,NNW,338,0.9,3.4,92,0.00,,,0.00,WUHU216HW,2013-05-06 11:15:00,
2013-05-06 06:20:00,47.9,45.7,30.05,North,0,2.2,4.0,92,0.00,,,0.00,WUHU216HW,2013-05-06 11:20:00,
2013-05-06 06:25:00,47.7,45.5,30.05,North,0,1.6,4.0,92,0.00,,,0.00,WUHU216HW,2013-05-06 11:25:00,
2013-05-06 06:30:00,47.7,45.5,30.05,North,0,0.7,2.5,92,0.00,,,0.00,WUHU216HW,2013-05-06 11:30:00,
2013-05-06 06:35:00,47.9,45.7,30.05,NNE,23,1.1,4.7,92,0.00,,,0.00,WUHU216HW,2013-05-06 11:35:00,
2013-05-06 06:40:00,47.9,45.7,30.05,North,0,0.7,4.7,92,0.00,,,0.00,WUHU216HW,2013-05-06 11:40:00,
2013-05-06 06:45:00,47.9,45.7,30.05,North,0,0.7,2.2,92,0.00,,,0.00,WUHU216HW,2013-05-06 11:45:00,
2013-05-06 06:50:00,47.9,45.7,30.05,North,0,0.2,1.6,92,0.00,,,0.00,WUHU216HW,2013-05-06 11:50:00,
2013-05-06 06:55:00,47.9,45.7,30.06,North,0,0.4,1.6,92,0.00,,,0.00,WUHU216HW,2013-05-06 11:55:00,
2013-05-06 07:00:00,48.1,45.9,30.06,North,0,0.4,1.3,92,0.00,,,0.00,WUHU216HW,2013-05-06 12:00:00,
2013-05-06 07:05:00,48.1,45.9,30.06,North,0,0.0,2.5,92,0.00,,,0.00,WUHU216HW,2013-05-06 12:05:00,
2013-05-06 07:10:00,48.1,45.9,30.07,NNE,23,0.4,2.5,92,0.00,,,0.00,WUHU216HW,2013-05-06 12:10:00,
2013-05-06 07:15:00,48.1,45.9,30.07,North,0,0.0,1.1,92,0.00,,,0.00,WUHU216HW,2013-05-06 12:15:00,
2013-05-06 07:20:00,48.2,46.1,30.07,North,0,0.9,1.1,92,0.00,,,0.00,WUHU216HW,2013-05-06 12:20:00,
2013-05-06 07:25:00,48.2,46.1,30.07,NNE,23,0.0,2.7,92,0.00,,,0.00,WUHU216HW,2013-05-06 12:25:00,
2013-05-06 07:30:00,48.2,46.1,30.08,North,0,1.1,2.7,92,0.00,,,0.00,WUHU216HW,2013-05-06 12:30:00,
2013-05-06 07:35:00,48.2,46.1,30.07,North,0,1.1,2.5,92,0.00,,,0.00,WUHU216HW,2013-05-06 12:35:00,
2013-05-06 07:40:00,48.1,45.9,30.07,North,0,1.3,2.5,92,0.00,,,0.00,WUHU216HW,2013-05-06 12:40:00,
2013-05-06 07:45:00,48.2,46.1,30.07,North,0,1.1,2.5,92,0.00,,,0.00,WUHU216HW,2013-05-06 12:45:00,
2013-05-06 07:50:00,48.2,46.1,30.07,North,0,1.3,2.5,92,0.00,,,0.00,WUHU216HW,2013-05-06 12:50:00,
2013-05-06 07:55:00,48.2,46.1,30.07,North,0,0.9,1.6,92,0.00,,,0.00,WUHU216HW,2013-05-06 12:55:00,
2013-05-06 08:00:00,48.4,46.3,30.07,North,0,1.3,1.8,92,0.00,,,0.00,WUHU216HW,2013-05-06 13:00:00,
2013-05-06 08:05:00,48.6,46.5,30.07,NNW,338,1.3,2.0,92,0.00,,,0.00,WUHU216HW,2013-05-06 13:05:00,
2013-05-06 08:10:00,48.6,46.5,30.07,NNW,338,1.1,2.0,92,0.00,,,0.00,WUHU216HW,2013-05-06 13:10:00,
2013-05-06 08:15:00,48.6,46.5,30.07,NNW,338,1.3,1.8,92,0.00,,,0.00,WUHU216HW,2013-05-06 13:15:00,
2013-05-06 08:20:00,48.8,46.6,30.07,NW,315,2.5,4.7,92,0.00,,,0.00,WUHU216HW,2013-05-06 13:20:00,
2013-05-06 08:25:00,48.8,46.6,30.07,NW,315,2.0,4.7,92,0.00,,,0.00,WUHU216HW,2013-05-06 13:25:00,
2013-05-06 08:30:00,48.6,46.5,30.07,NW,315,0.7,2.5,92,0.00,,,0.00,WUHU216HW,2013-05-06 13:30:00,
2013-05-06 08:35:00,49.0,46.7,30.07,NW,315,2.0,2.0,92,0.00,,,0.00,WUHU216HW,2013-05-06 13:35:00,
2013-05-06 08:40:00,49.0,46.7,30.07,NW,315,1.6,2.0,92,0.00,,,0.00,WUHU216HW,2013-05-06 13:40:00,
2013-05-06 08:45:00,49.0,46.7,30.07,NW,315,1.8,2.0,92,0.00,,,0.00,WUHU216HW,2013-05-06 13:45:00,
2013-05-06 08:50:00,49.1,46.9,30.07,NW,315,1.1,2.0,92,0.00,,,0.00,WUHU216HW,2013-05-06 13:50:00,
2013-05-06 08:55:00,49.1,46.9,30.07,NW,315,1.3,2.0,92,0.00,,,0.00,WUHU216HW,2013-05-06 13:55:00,
2013-05-06 09:00:00,49.3,47.1,30.08,NW,315,0.7,2.0,92,0.00,,,0.00,WUHU216HW,2013-05-06 14:00:00,
2013-05-06 09:05:00,49.7,47.4,30.08,NW,315,1.3,2.0,92,0.00,,,0.00,WUHU216HW,2013-05-06 14:05:00,
2013-05-06 09:10:00,49.9,47.6,30.08,NW,315,1.8,1.8,92,0.00,,,0.00,WUHU216HW,2013-05-06 14:10:00,
2013-05-06 09:15:00,49.9,47.6,30.08,NNW,338,0.7,1.8,92,0.00,,,0.00,WUHU216HW,2013-05-06 14:15:00,
2013-05-06 09:20:00,49.9,47.6,30.09,NNW,338,1.1,2.5,92,0.00,,,0.00,WUHU216HW,2013-05-06 14:20:00,
2013-05-06 09:25:00,50.0,47.7,30.09,NNE,23,1.6,2.5,92,0.00,,,0.00,WUHU216HW,2013-05-06 14:25:00,
2013-05-06 09:30:00,50.0,47.7,30.09,NNE,23,1.1,3.6,92,0.00,,,0.00,WUHU216HW,2013-05-06 14:30:00,
2013-05-06 09:35:00,49.9,47.6,30.09,North,0,0.7,4.0,92,0.00,,,0.00,WUHU216HW,2013-05-06 14:35:00,
2013-05-06 09:40:00,49.9,47.3,30.09,North,0,1.8,4.0,91,0.00,,,0.00,WUHU216HW,2013-05-06 14:40:00,
2013-05-06 09:45:00,50.0,47.4,30.09,North,0,1.1,2.7,91,0.00,,,0.00,WUHU216HW,2013-05-06 14:45:00,
2013-05-06 09:50:00,50.2,47.6,30.09,North,0,1.1,2.7,91,0.00,,,0.00,WUHU216HW,2013-05-06 14:50:00,
2013-05-06 09:55:00,50.4,47.8,30.09,NNW,338,2.2,2.9,91,0.00,,,0.00,WUHU216HW,2013-05-06 14:55:00,
2013-05-06 10:00:00,50.4,47.8,30.10,NNE,23,0.9,2.9,91,0.00,,,0.00,WUHU216HW,2013-05-06 15:00:00,
2013-05-06 10:05:00,50.6,47.7,30.10,North,0,2.9,2.9,90,0.00,,,0.00,WUHU216HW,2013-05-06 15:05:00,
2013-05-06 10:10:00,50.6,47.7,30.10,North,0,1.8,3.1,90,0.00,,,0.00,WUHU216HW,2013-05-06 15:10:00,
2013-05-06 10:15:00,50.8,47.9,30.10,North,0,0.2,3.1,90,0.00,,,0.00,WUHU216HW,2013-05-06 15:15:00,
2013-05-06 10:20:00,50.8,47.9,30.10,NNW,338,1.8,2.5,90,0.00,,,0.00,WUHU216HW,2013-05-06 15:20:00,
2013-05-06 10:25:00,50.8,47.9,30.10,NNW,338,2.2,2.5,90,0.00,,,0.00,WUHU216HW,2013-05-06 15:25:00,
2013-05-06 10:30:00,50.6,47.4,30.10,North,0,2.2,2.5,89,0.00,,,0.00,WUHU216HW,2013-05-06 15:30:00,
2013-05-06 10:35:00,50.8,47.9,30.10,North,0,0.0,2.2,90,0.00,,,0.00,WUHU216HW,2013-05-06 15:35:00,
2013-05-06 10:40:00,50.9,48.1,30.10,NNW,338,2.2,2.2,90,0.00,,,0.00,WUHU216HW,2013-05-06 15:40:00,
2013-05-06 10:45:00,51.1,48.0,30.10,NNW,338,0.2,2.2,89,0.00,,,0.00,WUHU216HW,2013-05-06 15:45:00,
2013-05-06 10:50:00,51.5,48.3,30.10,North,0,1.1,2.2,89,0.00,,,0.00,WUHU216HW,2013-05-06 15:50:00,
2013-05-06 10:55:00,51.5,48.3,30.10,North,0,0.9,4.3,89,0.00,,,0.00,WUHU216HW,2013-05-06 15:55:00,
2013-05-06 11:00:00,51.5,48.3,30.11,North,0,1.1,4.3,89,0.00,,,0.00,WUHU216HW,2013-05-06 16:00:00,
2013-05-06 11:05:00,51.5,48.3,30.11,North,0,0.9,2.2,89,0.00,,,0.00,WUHU216HW,2013-05-06 16:05:00,
2013-05-06 11:10:00,51.5,48.3,30.11,North,0,1.6,4.5,89,0.00,,,0.00,WUHU216HW,2013-05-06 16:10:00,
2013-05-06 11:15:00,51.8,48.7,30.11,North,0,0.9,4.5,89,0.00,,,0.00,WUHU216HW,2013-05-06 16:15:00,
2013-05-06 11:20:00,52.2,48.7,30.11,NNW,338,2.5,2.5,88,0.00,,,0.00,WUHU216HW,2013-05-06 16:20:00,
2013-05-06 11:25:00,52.2,49.1,30.11,NNW,338,2.5,2.5,89,0.00,,,0.00,WUHU216HW,2013-05-06 16:25:00,
2013-05-06 11:30:00,52.2,48.7,30.11,NNW,338,0.2,2.5,88,0.00,,,0.00,WUHU216HW,2013-05-06 16:30:00,
2013-05-06 11:35:00,52.2,48.7,30.11,NNW,338,1.1,2.5,88,0.00,,,0.00,WUHU216HW,2013-05-06 16:35:00,
2013-05-06 11:40:00,52.2,48.7,30.11,NNW,338,1.3,2.0,88,0.00,,,0.00,WUHU216HW,2013-05-06 16:40:00,
2013-05-06 11:45:00,52.2,48.7,30.11,NNW,338,0.7,2.0,88,0.00,,,0.00,WUHU216HW,2013-05-06 16:45:00,
2013-05-06 11:50:00,52.6,49.1,30.11,NNW,338,1.1,2.5,88,0.00,,,0.00,WUHU216HW,2013-05-06 16:50:00,
2013-05-06 11:55:00,52.9,49.2,30.11,NNW,338,1.1,2.5,87,0.00,,,0.00,WUHU216HW,2013-05-06 16:55:00,
2013-05-06 12:00:00,53.1,49.3,30.11,NW,315,2.7,2.7,87,0.00,,,0.00,WUHU216HW,2013-05-06 17:00:00,
2013-05-06 12:05:00,53.3,49.5,30.10,NNW,338,1.1,2.7,87,0.00,,,0.00,WUHU216HW,2013-05-06 17:05:00,
2013-05-06 12:10:00,53.5,49.7,30.11,NNW,338,1.8,2.7,87,0.00,,,0.00,WUHU216HW,2013-05-06 17:10:00,
2013-05-06 12:15:00,54.0,49.9,30.10,NNW,338,0.0,2.2,86,0.00,,,0.00,WUHU216HW,2013-05-06 17:15:00,
2013-05-06 12:20:00,54.4,50.2,30.10,WNW,293,1.3,4.3,86,0.00,,,0.00,WUHU216HW,2013-05-06 17:20:00,
2013-05-06 12:25:00,54.4,50.2,30.10,NW,315,1.6,4.3,86,0.00,,,0.00,WUHU216HW,2013-05-06 17:25:00,
2013-05-06 12:30:00,54.2,49.8,30.10,NW,315,1.1,3.6,85,0.00,,,0.00,WUHU216HW,2013-05-06 17:30:00,
2013-05-06 12:35:00,54.4,50.0,30.10,NNW,338,0.7,3.6,85,0.00,,,0.00,WUHU216HW,2013-05-06 17:35:00,
2013-05-06 12:40:00,54.5,50.1,30.10,NNW,338,1.3,2.2,85,0.00,,,0.00,WUHU216HW,2013-05-06 17:40:00,
2013-05-06 12:45:00,54.9,50.1,30.10,NW,315,2.5,2.9,84,0.00,,,0.00,WUHU216HW,2013-05-06 17:45:00,
2013-05-06 12:50:00,54.7,50.0,30.09,North,0,0.9,2.9,84,0.00,,,0.00,WUHU216HW,2013-05-06 17:50:00,
2013-05-06 12:55:00,56.2,51.3,30.09,NW,315,0.4,2.5,84,0.00,,,0.00,WUHU216HW,2013-05-06 17:55:00,
2013-05-06 13:00:00,56.5,51.4,30.09,NNW,338,1.3,1.8,83,0.00,,,0.00,WUHU216HW,2013-05-06 18:00:00,
2013-05-06 13:05:00,56.5,51.0,30.09,NNW,338,3.1,3.1,82,0.00,,,0.00,WUHU216HW,2013-05-06 18:05:00,
2013-05-06 13:10:00,57.2,52.1,30.08,NNW,338,0.7,3.1,83,0.00,,,0.00,WUHU216HW,2013-05-06 18:10:00,
2013-05-06 13:15:00,57.1,51.3,30.09,NNW,338,2.2,3.1,81,0.00,,,0.00,WUHU216HW,2013-05-06 18:15:00,
2013-05-06 13:20:00,56.9,51.1,30.09,NNW,338,1.1,2.5,81,0.00,,,0.00,WUHU216HW,2013-05-06 18:20:00,
2013-05-06 13:25:00,56.3,50.6,30.08,North,0,0.7,2.5,81,0.00,,,0.00,WUHU216HW,2013-05-06 18:25:00,
2013-05-06 13:30:00,57.1,50.9,30.08,NNE,23,2.2,2.5,80,0.00,,,0.00,WUHU216HW,2013-05-06 18:30:00,
2013-05-06 13:35:00,57.1,50.9,30.08,North,0,0.9,2.5,80,0.00,,,0.00,WUHU216HW,2013-05-06 18:35:00,
2013-05-06 13:40:00,57.1,51.3,30.08,NW,315,1.3,2.7,81,0.00,,,0.00,WUHU216HW,2013-05-06 18:40:00,
2013-05-06 13:45:00,57.1,51.3,30.08,NW,315,0.9,2.7,81,0.00,,,0.00,WUHU216HW,2013-05-06 18:45:00,
2013-05-06 13:50:00,57.2,51.1,30.08,North,0,1.6,1.8,80,0.00,,,0.00,WUHU216HW,2013-05-06 18:50:00,
2013-05-06 13:55:00,57.4,51.3,30.08,NW,315,1.1,2.2,80,0.00,,,0.00,WUHU216HW,2013-05-06 18:55:00,
2013-05-06 14:00:00,58.1,51.7,30.08,NW,315,2.0,2.2,79,0.00,,,0.00,WUHU216HW,2013-05-06 19:00:00,
2013-05-06 14:05:00,58.5,51.7,30.08,NW,315,1.3,3.1,78,0.00,,,0.00,WUHU216HW,2013-05-06 19:05:00,
2013-05-06 14:10:00,58.7,52.2,30.08,WNW,293,1.1,3.1,79,0.00,,,0.00,WUHU216HW,2013-05-06 19:10:00,
2013-05-06 14:15:00,58.3,50.8,30.08,WSW,248,1.8,2.5,76,0.00,,,0.00,WUHU216HW,2013-05-06 19:15:00,
2013-05-06 14:20:00,58.1,51.7,30.08,NW,315,0.7,2.5,79,0.00,,,0.00,WUHU216HW,2013-05-06 19:20:00,
2013-05-06 14:25:00,58.3,51.5,30.08,NW,315,2.7,3.6,78,0.00,,,0.00,WUHU216HW,2013-05-06 19:25:00,
2013-05-06 14:30:00,58.7,51.8,30.08,NW,315,1.1,3.6,78,0.00,,,0.00,WUHU216HW,2013-05-06 19:30:00,
2013-05-06 14:35:00,58.9,51.7,30.08,NW,315,0.9,3.6,77,0.00,,,0.00,WUHU216HW,2013-05-06 19:35:00,
2013-05-06 14:40:00,58.7,51.5,30.08,NW,315,0.9,2.2,77,0.00,,,0.00,WUHU216HW,2013-05-06 19:40:00,
2013-05-06 14:45:00,58.9,51.3,30.08,NW,315,2.7,2.7,76,0.00,,,0.00,WUHU216HW,2013-05-06 19:45:00,
2013-05-06 14:50:00,59.0,52.2,30.07,NW,315,1.3,4.0,78,0.00,,,0.00,WUHU216HW,2013-05-06 19:50:00,
2013-05-06 14:55:00,59.8,52.2,30.07,NW,315,1.6,4.0,76,0.00,,,0.00,WUHU216HW,2013-05-06 19:55:00,
2013-05-06 15:00:00,60.1,52.6,30.07,NW,315,1.6,2.9,76,0.00,,,0.00,WUHU216HW,2013-05-06 20:00:00,
2013-05-06 15:05:00,59.9,52.0,30.07,NNW,338,1.3,3.6,75,0.00,,,0.00,WUHU216HW,2013-05-06 20:05:00,
2013-05-06 15:10:00,59.6,51.7,30.07,NNW,338,2.0,3.6,75,0.00,,,0.00,WUHU216HW,2013-05-06 20:10:00,
2013-05-06 15:15:00,59.8,51.8,30.07,NNW,338,0.4,2.0,75,0.00,,,0.00,WUHU216HW,2013-05-06 20:15:00,
2013-05-06 15:20:00,60.8,52.6,30.07,NW,315,2.9,2.9,74,0.00,,,0.00,WUHU216HW,2013-05-06 20:20:00,
2013-05-06 15:25:00,61.2,52.2,30.06,NNW,338,2.0,2.9,72,0.00,,,0.00,WUHU216HW,2013-05-06 20:25:00,
2013-05-06 15:30:00,61.6,52.5,30.06,NW,315,0.9,3.1,72,0.00,,,0.00,WUHU216HW,2013-05-06 20:30:00,
2013-05-06 15:35:00,62.8,52.9,30.06,NW,315,1.1,3.1,70,0.00,,,0.00,WUHU216HW,2013-05-06 20:35:00,
2013-05-06 15:39:00,62.3,52.7,30.05,NNW,338,2.2,2.5,71,0.00,,,0.00,WUHU216HW,2013-05-06 20:39:00,
2013-05-06 15:44:00,61.4,51.6,30.05,NNW,338,1.3,2.2,70,0.00,,,0.00,WUHU216HW,2013-05-06 20:44:00,
2013-05-06 15:49:00,61.2,51.9,30.05,NW,315,2.9,3.6,71,0.00,,,0.00,WUHU216HW,2013-05-06 20:49:00,
2013-05-06 15:54:00,60.5,51.8,30.05,North,0,1.6,3.6,73,0.00,,,0.00,WUHU216HW,2013-05-06 20:54:00,
2013-05-06 15:59:00,60.5,52.2,30.05,North,0,2.0,2.9,74,0.00,,,0.00,WUHU216HW,2013-05-06 20:59:00,
2013-05-06 16:04:00,60.7,52.0,30.05,North,0,1.8,2.5,73,0.00,,,0.00,WUHU216HW,2013-05-06 21:04:00,
2013-05-06 16:09:00,61.6,52.5,30.05,North,0,2.5,2.7,72,0.00,,,0.00,WUHU216HW,2013-05-06 21:09:00,
2013-05-06 16:14:00,61.9,52.5,30.05,North,0,1.1,2.7,71,0.00,,,0.00,WUHU216HW,2013-05-06 21:14:00,
2013-05-06 16:19:00,62.1,53.0,30.05,NNW,338,1.1,2.7,72,0.00,,,0.00,WUHU216HW,2013-05-06 21:19:00,
2013-05-06 16:24:00,63.7,54.2,30.05,NNW,338,2.5,3.6,71,0.00,,,0.00,WUHU216HW,2013-05-06 21:24:00,
2013-05-06 16:29:00,63.7,53.4,30.05,NNW,338,1.3,3.6,69,0.00,,,0.00,WUHU216HW,2013-05-06 21:29:00,
2013-05-06 16:34:00,63.2,53.3,30.05,NNW,338,1.8,3.4,70,0.00,,,0.00,WUHU216HW,2013-05-06 21:34:00,
2013-05-06 16:39:00,62.8,52.9,30.05,North,0,1.1,3.1,70,0.00,,,0.00,WUHU216HW,2013-05-06 21:39:00,
2013-05-06 16:44:00,62.8,52.5,30.05,North,0,2.5,3.1,69,0.00,,,0.00,WUHU216HW,2013-05-06 21:44:00,
2013-05-06 16:49:00,63.7,53.4,30.05,North,0,1.1,2.9,69,0.00,,,0.00,WUHU216HW,2013-05-06 21:49:00,
2013-05-06 16:54:00,64.1,54.2,30.05,NNW,338,2.7,2.9,70,0.00,,,0.00,WUHU216HW,2013-05-06 21:54:00,
2013-05-06 16:59:00,63.7,53.4,30.05,NNW,338,1.1,2.7,69,0.00,,,0.00,WUHU216HW,2013-05-06 21:59:00,
2013-05-06 17:04:00,63.9,53.6,30.05,North,0,5.4,5.4,69,0.00,,,0.00,WUHU216HW,2013-05-06 22:04:00,
2013-05-06 17:09:00,63.5,52.8,30.05,North,0,0.7,5.4,68,0.00,,,0.00,WUHU216HW,2013-05-06 22:09:00,
2013-05-06 17:14:00,63.0,52.3,30.05,North,0,1.8,5.4,68,0.00,,,0.00,WUHU216HW,2013-05-06 22:14:00,
2013-05-06 17:19:00,62.6,52.7,30.05,North,0,0.0,1.8,70,0.00,,,0.00,WUHU216HW,2013-05-06 22:19:00,
2013-05-06 17:24:00,62.6,52.7,30.05,NE,45,0.9,4.0,70,0.00,,,0.00,WUHU216HW,2013-05-06 22:24:00,
2013-05-06 17:29:00,62.8,52.9,30.05,North,0,0.9,4.0,70,0.00,,,0.00,WUHU216HW,2013-05-06 22:29:00,
2013-05-06 17:34:00,62.5,52.6,30.05,NNE,23,2.0,2.2,70,0.00,,,0.00,WUHU216HW,2013-05-06 22:34:00,
2013-05-06 17:39:00,63.4,53.5,30.05,North,0,0.7,2.2,70,0.00,,,0.00,WUHU216HW,2013-05-06 22:39:00,
2013-05-06 17:44:00,64.8,53.2,30.05,North,0,2.2,2.2,66,0.00,,,0.00,WUHU216HW,2013-05-06 22:44:00,
2013-05-06 17:49:00,66.2,54.1,30.05,NNW,338,0.9,2.2,65,0.00,,,0.00,WUHU216HW,2013-05-06 22:49:00,
2013-05-06 17:54:00,64.6,52.6,30.05,NNW,338,1.1,2.2,65,0.00,,,0.00,WUHU216HW,2013-05-06 22:54:00,
2013-05-06 17:59:00,64.8,53.6,30.04,NNW,338,1.8,1.8,67,0.00,,,0.00,WUHU216HW,2013-05-06 22:59:00,
2013-05-06 18:04:00,64.8,52.8,30.04,North,0,0.2,1.8,65,0.00,,,0.00,WUHU216HW,2013-05-06 23:04:00,
2013-05-06 18:09:00,65.5,53.4,30.04,NNW,338,0.9,1.8,65,0.00,,,0.00,WUHU216HW,2013-05-06 23:09:00,
2013-05-06 18:14:00,66.6,53.7,30.04,NNW,338,0.9,1.1,63,0.00,,,0.00,WUHU216HW,2013-05-06 23:14:00,
2013-05-06 18:19:00,66.2,52.8,30.04,NNW,338,0.0,1.1,62,0.00,,,0.00,WUHU216HW,2013-05-06 23:19:00,
2013-05-06 18:24:00,66.4,53.0,30.04,NNW,338,1.1,1.1,62,0.00,,,0.00,WUHU216HW,2013-05-06 23:24:00,
2013-05-06 18:29:00,67.3,53.8,30.04,NW,315,1.1,1.3,62,0.00,,,0.00,WUHU216HW,2013-05-06 23:29:00,
2013-05-06 18:34:00,67.3,53.8,30.04,NW,315,1.6,2.2,62,0.00,,,0.00,WUHU216HW,2013-05-06 23:34:00,
2013-05-06 18:39:00,66.2,53.6,30.04,NW,315,1.8,2.2,64,0.00,,,0.00,WUHU216HW,2013-05-06 23:39:00,
2013-05-06 18:44:00,65.7,53.6,30.04,NW,315,0.4,1.8,65,0.00,,,0.00,WUHU216HW,2013-05-06 23:44:00,
2013-05-06 18:49:00,65.5,53.0,30.04,NW,315,0.9,1.8,64,0.00,,,0.00,WUHU216HW,2013-05-06 23:49:00,
2013-05-06 18:54:00,65.2,53.1,30.04,NW,315,0.7,0.9,65,0.00,,,0.00,WUHU216HW,2013-05-06 23:54:00,
2013-05-06 18:59:00,63.2,52.0,30.04,NW,315,0.4,1.1,67,0.00,,,0.00,WUHU216HW,2013-05-06 23:59:00,
2013-05-06 19:04:00,62.3,52.4,30.03,NW,315,1.6,1.6,70,0.00,,,0.00,WUHU216HW,2013-05-07 00:04:00,
2013-05-06 19:09:00,61.6,51.8,30.03,NW,315,0.7,1.6,70,0.00,,,0.00,WUHU216HW,2013-05-07 00:09:00,
2013-05-06 19:14:00,61.6,51.8,30.04,NW,315,1.1,1.6,70,0.00,,,0.00,WUHU216HW,2013-05-07 00:14:00,
2013-05-06 19:19:00,61.2,51.9,30.04,NW,315,0.4,1.3,71,0.00,,,0.00,WUHU216HW,2013-05-07 00:19:00,
2013-05-06 19:24:00,61.2,51.9,30.04,NW,315,0.4,1.3,71,0.00,,,0.00,WUHU216HW,2013-05-07 00:24:00,
2013-05-06 19:29:00,61.0,51.7,30.04,NW,315,0.9,0.9,71,0.00,,,0.00,WUHU216HW,2013-05-07 00:29:00,
2013-05-06 19:34:00,60.7,51.7,30.04,NW,315,0.0,0.9,72,0.00,,,0.00,WUHU216HW,2013-05-07 00:34:00,
2013-05-06 19:39:00,59.8,51.1,30.04,NW,315,0.2,0.9,73,0.00,,,0.00,WUHU216HW,2013-05-07 00:39:00,
2013-05-06 19:44:00,59.4,50.8,30.04,NW,315,0.2,0.2,73,0.00,,,0.00,WUHU216HW,2013-05-07 00:44:00,
2013-05-06 19:49:00,58.7,50.4,30.04,NW,315,0.0,0.2,74,0.00,,,0.00,WUHU216HW,2013-05-07 00:49:00,
2013-05-06 19:54:00,57.8,50.2,30.04,NW,315,0.0,0.2,76,0.00,,,0.00,WUHU216HW,2013-05-07 00:54:00,
2013-05-06 19:59:00,57.6,50.4,30.04,NW,315,0.0,0.0,77,0.00,,,0.00,WUHU216HW,2013-05-07 00:59:00,
2013-05-06 20:04:00,56.9,49.7,30.04,NW,315,0.0,0.0,77,0.00,,,0.00,WUHU216HW,2013-05-07 01:04:00,
2013-05-06 20:09:00,56.2,49.0,30.04,NW,315,0.0,0.0,77,0.00,,,0.00,WUHU216HW,2013-05-07 01:09:00,
2013-05-06 20:14:00,55.4,49.0,30.05,NW,315,0.4,0.4,79,0.00,,,0.00,WUHU216HW,2013-05-07 01:14:00,
2013-05-06 20:19:00,54.7,48.0,30.04,NW,315,0.0,0.4,78,0.00,,,0.00,WUHU216HW,2013-05-07 01:19:00,
2013-05-06 20:24:00,54.0,47.4,30.05,NW,315,0.0,0.4,78,0.00,,,0.00,WUHU216HW,2013-05-07 01:24:00,
2013-05-06 20:29:00,53.5,47.2,30.05,NW,315,0.0,0.0,79,0.00,,,0.00,WUHU216HW,2013-05-07 01:29:00,
2013-05-06 20:34:00,53.3,48.0,30.05,NW,315,0.0,0.0,82,0.00,,,0.00,WUHU216HW,2013-05-07 01:34:00,
2013-05-06 20:39:00,53.1,47.8,30.05,NW,315,0.0,0.0,82,0.00,,,0.00,WUHU216HW,2013-05-07 01:39:00,
2013-05-06 20:44:00,52.9,47.6,30.05,NW,315,0.0,0.0,82,0.00,,,0.00,WUHU216HW,2013-05-07 01:44:00,
2013-05-06 20:49:00,52.6,47.3,30.06,NW,315,0.0,0.0,82,0.00,,,0.00,WUHU216HW,2013-05-07 01:49:00,
2013-05-06 20:54:00,52.6,47.3,30.05,NW,315,0.0,0.0,82,0.00,,,0.00,WUHU216HW,2013-05-07 01:54:00,
2013-05-06 20:59:00,51.8,46.8,30.05,NW,315,0.0,0.0,83,0.00,,,0.00,WUHU216HW,2013-05-07 01:59:00,
2013-05-06 21:04:00,51.8,47.2,30.06,NW,315,0.0,0.0,84,0.00,,,0.00,WUHU216HW,2013-05-07 02:04:00,
2013-05-06 21:09:00,51.8,47.4,30.06,NW,315,0.0,0.0,85,0.00,,,0.00,WUHU216HW,2013-05-07 02:09:00,
2013-05-06 21:14:00,51.7,47.3,30.06,NW,315,0.0,0.0,85,0.00,,,0.00,WUHU216HW,2013-05-07 02:14:00,
2013-05-06 21:19:00,51.3,46.9,30.06,NW,315,0.0,0.0,85,0.00,,,0.00,WUHU216HW,2013-05-07 02:19:00,
2013-05-06 21:24:00,51.1,46.7,30.06,NW,315,0.0,0.0,85,0.00,,,0.00,WUHU216HW,2013-05-07 02:24:00,
2013-05-06 21:29:00,51.1,46.7,30.07,NW,315,0.0,0.0,85,0.00,,,0.00,WUHU216HW,2013-05-07 02:29:00,
2013-05-06 21:34:00,51.1,47.0,30.07,NW,315,0.0,0.0,86,0.00,,,0.00,WUHU216HW,2013-05-07 02:34:00,
2013-05-06 21:39:00,51.1,47.0,30.07,NW,315,0.0,0.0,86,0.00,,,0.00,WUHU216HW,2013-05-07 02:39:00,
2013-05-06 21:44:00,50.8,46.6,30.07,NW,315,0.0,0.0,86,0.00,,,0.00,WUHU216HW,2013-05-07 02:44:00,
2013-05-06 21:49:00,50.8,47.0,30.07,NW,315,0.0,0.0,87,0.00,,,0.00,WUHU216HW,2013-05-07 02:49:00,
2013-05-06 21:54:00,50.8,46.6,30.07,NW,315,0.0,0.0,86,0.00,,,0.00,WUHU216HW,2013-05-07 02:54:00,
2013-05-06 21:59:00,50.6,46.4,30.08,NW,315,0.0,0.0,86,0.00,,,0.00,WUHU216HW,2013-05-07 02:59:00,
2013-05-06 22:04:00,50.4,46.3,30.08,NW,315,0.0,0.0,86,0.00,,,0.00,WUHU216HW,2013-05-07 03:04:00,
2013-05-06 22:09:00,50.2,46.1,30.08,NW,315,0.0,0.0,86,0.00,,,0.00,WUHU216HW,2013-05-07 03:09:00,
2013-05-06 22:14:00,50.2,46.1,30.08,NW,315,0.0,0.0,86,0.00,,,0.00,WUHU216HW,2013-05-07 03:14:00,
2013-05-06 22:19:00,49.9,45.8,30.08,NW,315,0.0,0.0,86,0.00,,,0.00,WUHU216HW,2013-05-07 03:19:00,
2013-05-06 22:24:00,49.7,45.6,30.08,NW,315,0.0,0.0,86,0.00,,,0.00,WUHU216HW,2013-05-07 03:24:00,
2013-05-06 22:29:00,50.2,46.5,30.08,NW,315,0.0,0.0,87,0.00,,,0.00,WUHU216HW,2013-05-07 03:29:00,
2013-05-06 22:34:00,50.2,46.5,30.08,NW,315,0.0,0.0,87,0.00,,,0.00,WUHU216HW,2013-05-07 03:34:00,
2013-05-06 22:39:00,49.9,46.1,30.08,NW,315,0.0,0.0,87,0.00,,,0.00,WUHU216HW,2013-05-07 03:39:00,
2013-05-06 22:44:00,49.7,46.3,30.09,NW,315,0.4,1.1,88,0.00,,,0.00,WUHU216HW,2013-05-07 03:44:00,
2013-05-06 22:49:00,49.1,45.7,30.09,NW,315,0.0,1.1,88,0.00,,,0.00,WUHU216HW,2013-05-07 03:49:00,
2013-05-06 22:54:00,49.1,45.7,30.09,NW,315,0.0,0.4,88,0.00,,,0.00,WUHU216HW,2013-05-07 03:54:00,
2013-05-06 22:59:00,48.6,45.2,30.09,NW,315,0.0,0.9,88,0.00,,,0.00,WUHU216HW,2013-05-07 03:59:00,
2013-05-06 23:01:00,48.6,45.2,30.09,NW,315,0.0,0.9,88,0.00,,,0.00,WUHU216HW,2013-05-07 04:01:00,
2013-05-06 23:06:00,48.2,44.9,30.09,NW,315,0.0,0.9,88,0.00,,,0.00,WUHU216HW,2013-05-07 04:06:00,
2013-05-06 23:11:00,48.2,44.9,30.09,NW,315,0.0,0.0,88,0.00,,,0.00,WUHU216HW,2013-05-07 04:11:00,
2013-05-06 23:16:00,48.6,45.2,30.09,NW,315,0.0,0.0,88,0.00,,,0.00,WUHU216HW,2013-05-07 04:16:00,
2013-05-06 23:21:00,48.4,45.1,30.09,NW,315,0.7,0.9,88,0.00,,,0.00,WUHU216HW,2013-05-07 04:21:00,
2013-05-06 23:26:00,48.2,45.2,30.09,NW,315,0.0,1.1,89,0.00,,,0.00,WUHU216HW,2013-05-07 04:26:00,
2013-05-06 23:31:00,48.6,45.9,30.09,NW,315,0.0,1.1,90,0.00,,,0.00,WUHU216HW,2013-05-07 04:31:00,
2013-05-06 23:36:00,48.2,45.2,30.09,NW,315,0.0,0.0,89,0.00,,,0.00,WUHU216HW,2013-05-07 04:36:00,
2013-05-06 23:41:00,48.2,45.2,30.08,NW,315,0.0,0.0,89,0.00,,,0.00,WUHU216HW,2013-05-07 04:41:00,
2013-05-06 23:46:00,48.2,45.2,30.08,NW,315,0.0,0.0,89,0.00,,,0.00,WUHU216HW,2013-05-07 04:46:00,
2013-05-06 23:51:00,48.6,45.9,30.08,NW,315,0.0,0.0,90,0.00,,,0.00,WUHU216HW,2013-05-07 04:51:00,
2013-05-06 23:56:00,48.4,45.7,30.08,NW,315,0.0,0.0,90,0.00,,,0.00,WUHU216HW,2013-05-07 04:56:00,